sensor_id;sensor_type;location;lat;lon;timestamp;P1;durP1;ratioP1;P2;durP2;ratioP2
11970;SDS011;6045;42.682;23.294;2023-10-19T00:02:13;12.37;;;7.90;;
11970;SDS011;6045;42.682;23.294;2023-10-19T00:04:40;14.20;;;7.47;;
11970;SDS011;6045;42.682;23.294;2023-10-19T00:07:07;17.23;;;8.20;;
11970;SDS011;6045;42.682;23.294;2023-10-19T00:09:40;14.13;;;8.00;;
11970;SDS011;6045;42.682;23.294;2023-10-19T00:12:10;12.97;;;7.93;;
11970;SDS011;6045;42.682;23.294;2023-10-19T00:14:39;11.40;;;8.20;;
11970;SDS011;6045;42.682;23.294;2023-10-19T00:17:05;14.23;;;8.13;;
11970;SDS011;6045;42.682;23.294;2023-10-19T00:19:36;12.13;;;8.13;;
11970;SDS011;6045;42.682;23.294;2023-10-19T00:22:04;11.90;;;7.50;;
11970;SDS011;6045;42.682;23.294;2023-10-19T00:24:36;14.00;;;7.77;;
11970;SDS011;6045;42.682;23.294;2023-10-19T00:27:02;14.33;;;8.50;;
11970;SDS011;6045;42.682;23.294;2023-10-19T00:29:41;13.70;;;7.47;;
11970;SDS011;6045;42.682;23.294;2023-10-19T00:32:14;12.57;;;8.10;;
11970;SDS011;6045;42.682;23.294;2023-10-19T00:34:43;13.73;;;8.47;;
11970;SDS011;6045;42.682;23.294;2023-10-19T00:37:17;12.60;;;7.87;;
11970;SDS011;6045;42.682;23.294;2023-10-19T00:39:51;11.77;;;7.37;;
11970;SDS011;6045;42.682;23.294;2023-10-19T00:42:20;12.70;;;7.63;;
11970;SDS011;6045;42.682;23.294;2023-10-19T00:44:52;12.77;;;7.67;;
11970;SDS011;6045;42.682;23.294;2023-10-19T00:47:26;12.43;;;8.03;;
11970;SDS011;6045;42.682;23.294;2023-10-19T00:50:00;13.70;;;7.97;;
11970;SDS011;6045;42.682;23.294;2023-10-19T00:52:30;11.43;;;7.73;;
11970;SDS011;6045;42.682;23.294;2023-10-19T00:55:07;12.50;;;7.33;;
11970;SDS011;6045;42.682;23.294;2023-10-19T00:57:37;14.37;;;7.43;;
11970;SDS011;6045;42.682;23.294;2023-10-19T01:00:12;11.17;;;7.47;;
11970;SDS011;6045;42.682;23.294;2023-10-19T01:02:47;10.90;;;7.43;;
11970;SDS011;6045;42.682;23.294;2023-10-19T01:05:17;11.07;;;7.30;;
11970;SDS011;6045;42.682;23.294;2023-10-19T01:07:47;11.33;;;6.50;;
11970;SDS011;6045;42.682;23.294;2023-10-19T01:10:21;11.13;;;7.33;;
11970;SDS011;6045;42.682;23.294;2023-10-19T01:12:48;13.87;;;7.87;;
11970;SDS011;6045;42.682;23.294;2023-10-19T01:15:17;10.10;;;6.77;;
11970;SDS011;6045;42.682;23.294;2023-10-19T01:17:49;14.57;;;7.47;;
11970;SDS011;6045;42.682;23.294;2023-10-19T01:20:19;10.90;;;7.20;;
11970;SDS011;6045;42.682;23.294;2023-10-19T01:22:55;13.23;;;7.47;;
11970;SDS011;6045;42.682;23.294;2023-10-19T01:25:46;11.63;;;7.13;;
11970;SDS011;6045;42.682;23.294;2023-10-19T01:28:15;11.37;;;6.93;;
11970;SDS011;6045;42.682;23.294;2023-10-19T01:30:43;11.07;;;7.20;;
11970;SDS011;6045;42.682;23.294;2023-10-19T01:33:10;12.07;;;7.30;;
11970;SDS011;6045;42.682;23.294;2023-10-19T01:35:40;12.57;;;7.80;;
11970;SDS011;6045;42.682;23.294;2023-10-19T01:38:27;10.43;;;7.07;;
11970;SDS011;6045;42.682;23.294;2023-10-19T01:40:56;12.30;;;7.67;;
11970;SDS011;6045;42.682;23.294;2023-10-19T01:43:24;12.40;;;7.37;;
11970;SDS011;6045;42.682;23.294;2023-10-19T01:45:55;11.80;;;7.80;;
11970;SDS011;6045;42.682;23.294;2023-10-19T01:48:21;11.23;;;7.70;;
11970;SDS011;6045;42.682;23.294;2023-10-19T01:50:58;12.73;;;7.03;;
11970;SDS011;6045;42.682;23.294;2023-10-19T01:53:25;11.90;;;7.33;;
11970;SDS011;6045;42.682;23.294;2023-10-19T01:55:53;12.27;;;7.43;;
11970;SDS011;6045;42.682;23.294;2023-10-19T01:58:24;12.97;;;8.10;;
11970;SDS011;6045;42.682;23.294;2023-10-19T02:00:50;12.27;;;7.97;;
11970;SDS011;6045;42.682;23.294;2023-10-19T02:03:20;12.43;;;8.50;;
11970;SDS011;6045;42.682;23.294;2023-10-19T02:05:47;12.67;;;8.33;;
11970;SDS011;6045;42.682;23.294;2023-10-19T02:08:18;17.23;;;11.53;;
11970;SDS011;6045;42.682;23.294;2023-10-19T02:10:50;15.53;;;8.70;;
11970;SDS011;6045;42.682;23.294;2023-10-19T02:13:18;12.20;;;8.53;;
11970;SDS011;6045;42.682;23.294;2023-10-19T02:15:44;13.70;;;8.60;;
11970;SDS011;6045;42.682;23.294;2023-10-19T02:18:11;14.97;;;8.00;;
11970;SDS011;6045;42.682;23.294;2023-10-19T02:20:37;16.07;;;9.03;;
11970;SDS011;6045;42.682;23.294;2023-10-19T02:23:06;16.13;;;9.33;;
11970;SDS011;6045;42.682;23.294;2023-10-19T02:25:33;14.63;;;10.17;;
11970;SDS011;6045;42.682;23.294;2023-10-19T02:28:02;15.43;;;10.00;;
11970;SDS011;6045;42.682;23.294;2023-10-19T02:30:30;13.47;;;8.40;;
11970;SDS011;6045;42.682;23.294;2023-10-19T02:32:59;15.87;;;9.80;;
11970;SDS011;6045;42.682;23.294;2023-10-19T02:35:26;14.70;;;8.67;;
11970;SDS011;6045;42.682;23.294;2023-10-19T02:37:53;16.57;;;10.27;;
11970;SDS011;6045;42.682;23.294;2023-10-19T02:40:20;15.73;;;10.43;;
11970;SDS011;6045;42.682;23.294;2023-10-19T02:42:50;15.50;;;9.70;;
11970;SDS011;6045;42.682;23.294;2023-10-19T02:45:18;18.33;;;9.93;;
11970;SDS011;6045;42.682;23.294;2023-10-19T02:47:46;12.07;;;8.93;;
11970;SDS011;6045;42.682;23.294;2023-10-19T02:50:13;15.00;;;9.30;;
11970;SDS011;6045;42.682;23.294;2023-10-19T02:52:41;17.13;;;9.73;;
11970;SDS011;6045;42.682;23.294;2023-10-19T02:55:09;15.23;;;9.63;;
11970;SDS011;6045;42.682;23.294;2023-10-19T02:57:35;16.97;;;9.83;;
11970;SDS011;6045;42.682;23.294;2023-10-19T03:00:04;15.63;;;9.27;;
11970;SDS011;6045;42.682;23.294;2023-10-19T03:02:36;15.37;;;9.70;;
11970;SDS011;6045;42.682;23.294;2023-10-19T03:05:05;17.13;;;10.10;;
11970;SDS011;6045;42.682;23.294;2023-10-19T03:07:39;13.47;;;9.10;;
11970;SDS011;6045;42.682;23.294;2023-10-19T03:10:08;15.07;;;10.30;;
11970;SDS011;6045;42.682;23.294;2023-10-19T03:12:48;18.13;;;9.20;;
11970;SDS011;6045;42.682;23.294;2023-10-19T03:15:15;16.17;;;9.50;;
11970;SDS011;6045;42.682;23.294;2023-10-19T03:17:42;15.67;;;10.20;;
11970;SDS011;6045;42.682;23.294;2023-10-19T03:20:11;14.63;;;9.77;;
11970;SDS011;6045;42.682;23.294;2023-10-19T03:22:37;17.30;;;10.37;;
11970;SDS011;6045;42.682;23.294;2023-10-19T03:25:04;16.13;;;9.30;;
11970;SDS011;6045;42.682;23.294;2023-10-19T03:27:59;17.23;;;10.50;;
11970;SDS011;6045;42.682;23.294;2023-10-19T03:30:33;15.60;;;8.67;;
11970;SDS011;6045;42.682;23.294;2023-10-19T03:33:04;16.07;;;9.80;;
11970;SDS011;6045;42.682;23.294;2023-10-19T03:35:35;16.03;;;10.77;;
11970;SDS011;6045;42.682;23.294;2023-10-19T03:38:03;16.27;;;10.07;;
11970;SDS011;6045;42.682;23.294;2023-10-19T03:40:34;14.93;;;10.00;;
11970;SDS011;6045;42.682;23.294;2023-10-19T03:43:04;18.47;;;10.40;;
11970;SDS011;6045;42.682;23.294;2023-10-19T03:45:42;15.07;;;10.10;;
11970;SDS011;6045;42.682;23.294;2023-10-19T03:48:15;12.53;;;8.43;;
11970;SDS011;6045;42.682;23.294;2023-10-19T03:50:45;11.57;;;7.97;;
11970;SDS011;6045;42.682;23.294;2023-10-19T03:53:17;15.87;;;9.20;;
11970;SDS011;6045;42.682;23.294;2023-10-19T03:55:44;16.63;;;9.73;;
11970;SDS011;6045;42.682;23.294;2023-10-19T03:58:12;16.27;;;10.03;;
11970;SDS011;6045;42.682;23.294;2023-10-19T04:00:39;15.77;;;9.43;;
11970;SDS011;6045;42.682;23.294;2023-10-19T04:03:07;14.27;;;8.80;;
11970;SDS011;6045;42.682;23.294;2023-10-19T04:05:33;11.87;;;8.67;;
11970;SDS011;6045;42.682;23.294;2023-10-19T04:08:05;13.13;;;7.93;;
11970;SDS011;6045;42.682;23.294;2023-10-19T04:10:38;16.03;;;9.13;;
11970;SDS011;6045;42.682;23.294;2023-10-19T04:13:09;13.37;;;8.27;;
11970;SDS011;6045;42.682;23.294;2023-10-19T04:15:39;15.20;;;8.83;;
11970;SDS011;6045;42.682;23.294;2023-10-19T04:18:06;12.50;;;8.17;;
11970;SDS011;6045;42.682;23.294;2023-10-19T04:20:36;12.07;;;7.70;;
11970;SDS011;6045;42.682;23.294;2023-10-19T04:23:21;14.07;;;9.07;;
11970;SDS011;6045;42.682;23.294;2023-10-19T04:25:52;13.27;;;9.27;;
11970;SDS011;6045;42.682;23.294;2023-10-19T04:28:21;13.47;;;8.73;;
11970;SDS011;6045;42.682;23.294;2023-10-19T04:30:56;11.73;;;7.70;;
11970;SDS011;6045;42.682;23.294;2023-10-19T04:33:28;11.57;;;8.50;;
11970;SDS011;6045;42.682;23.294;2023-10-19T04:35:55;12.40;;;7.97;;
11970;SDS011;6045;42.682;23.294;2023-10-19T04:38:26;10.97;;;7.67;;
11970;SDS011;6045;42.682;23.294;2023-10-19T04:41:03;12.03;;;7.93;;
11970;SDS011;6045;42.682;23.294;2023-10-19T04:43:32;12.40;;;8.33;;
11970;SDS011;6045;42.682;23.294;2023-10-19T04:46:00;12.67;;;8.40;;
11970;SDS011;6045;42.682;23.294;2023-10-19T04:48:32;9.97;;;7.20;;
11970;SDS011;6045;42.682;23.294;2023-10-19T04:51:00;12.00;;;7.63;;
11970;SDS011;6045;42.682;23.294;2023-10-19T04:53:30;13.07;;;7.97;;
11970;SDS011;6045;42.682;23.294;2023-10-19T04:55:57;14.47;;;7.27;;
11970;SDS011;6045;42.682;23.294;2023-10-19T04:58:25;12.33;;;7.83;;
11970;SDS011;6045;42.682;23.294;2023-10-19T05:00:53;12.73;;;8.60;;
11970;SDS011;6045;42.682;23.294;2023-10-19T05:03:24;12.47;;;7.17;;
11970;SDS011;6045;42.682;23.294;2023-10-19T05:05:51;14.70;;;9.00;;
11970;SDS011;6045;42.682;23.294;2023-10-19T05:08:17;16.17;;;8.90;;
11970;SDS011;6045;42.682;23.294;2023-10-19T05:10:48;13.63;;;9.73;;
11970;SDS011;6045;42.682;23.294;2023-10-19T05:13:16;15.13;;;9.13;;
11970;SDS011;6045;42.682;23.294;2023-10-19T05:15:43;16.90;;;9.13;;
11970;SDS011;6045;42.682;23.294;2023-10-19T05:18:09;13.40;;;8.60;;
11970;SDS011;6045;42.682;23.294;2023-10-19T05:20:37;11.17;;;8.87;;
11970;SDS011;6045;42.682;23.294;2023-10-19T05:23:05;16.03;;;9.83;;
11970;SDS011;6045;42.682;23.294;2023-10-19T05:25:33;13.77;;;9.90;;
11970;SDS011;6045;42.682;23.294;2023-10-19T05:28:02;13.93;;;10.07;;
11970;SDS011;6045;42.682;23.294;2023-10-19T05:30:30;14.27;;;8.93;;
11970;SDS011;6045;42.682;23.294;2023-10-19T05:32:58;16.87;;;9.40;;
11970;SDS011;6045;42.682;23.294;2023-10-19T05:35:26;18.03;;;10.00;;
11970;SDS011;6045;42.682;23.294;2023-10-19T05:37:54;16.60;;;11.00;;
11970;SDS011;6045;42.682;23.294;2023-10-19T05:40:23;19.60;;;11.13;;
11970;SDS011;6045;42.682;23.294;2023-10-19T05:42:55;15.93;;;10.17;;
11970;SDS011;6045;42.682;23.294;2023-10-19T05:45:24;17.33;;;10.50;;
11970;SDS011;6045;42.682;23.294;2023-10-19T05:47:52;18.43;;;10.97;;
11970;SDS011;6045;42.682;23.294;2023-10-19T05:50:19;17.83;;;11.13;;
11970;SDS011;6045;42.682;23.294;2023-10-19T05:52:45;16.70;;;10.27;;
11970;SDS011;6045;42.682;23.294;2023-10-19T05:55:14;18.60;;;10.73;;
11970;SDS011;6045;42.682;23.294;2023-10-19T05:57:41;15.57;;;10.73;;
11970;SDS011;6045;42.682;23.294;2023-10-19T06:00:08;16.20;;;11.27;;
11970;SDS011;6045;42.682;23.294;2023-10-19T06:02:42;19.30;;;11.70;;
11970;SDS011;6045;42.682;23.294;2023-10-19T06:05:11;20.33;;;11.17;;
11970;SDS011;6045;42.682;23.294;2023-10-19T06:07:40;19.83;;;11.40;;
11970;SDS011;6045;42.682;23.294;2023-10-19T06:10:08;19.47;;;10.97;;
11970;SDS011;6045;42.682;23.294;2023-10-19T06:12:41;20.27;;;13.53;;
11970;SDS011;6045;42.682;23.294;2023-10-19T06:15:08;23.47;;;12.80;;
11970;SDS011;6045;42.682;23.294;2023-10-19T06:17:36;21.93;;;14.57;;
11970;SDS011;6045;42.682;23.294;2023-10-19T06:20:04;26.27;;;15.43;;
11970;SDS011;6045;42.682;23.294;2023-10-19T06:22:33;26.37;;;14.33;;
11970;SDS011;6045;42.682;23.294;2023-10-19T06:25:00;21.10;;;13.93;;
11970;SDS011;6045;42.682;23.294;2023-10-19T06:27:27;23.93;;;14.10;;
11970;SDS011;6045;42.682;23.294;2023-10-19T06:29:55;21.47;;;13.43;;
11970;SDS011;6045;42.682;23.294;2023-10-19T06:32:21;21.80;;;12.63;;
11970;SDS011;6045;42.682;23.294;2023-10-19T06:34:48;20.20;;;13.30;;
11970;SDS011;6045;42.682;23.294;2023-10-19T06:37:16;15.60;;;11.73;;
11970;SDS011;6045;42.682;23.294;2023-10-19T06:39:43;17.93;;;12.30;;
11970;SDS011;6045;42.682;23.294;2023-10-19T06:42:10;14.10;;;9.93;;
11970;SDS011;6045;42.682;23.294;2023-10-19T06:44:40;17.00;;;9.77;;
11970;SDS011;6045;42.682;23.294;2023-10-19T06:47:08;16.10;;;10.33;;
11970;SDS011;6045;42.682;23.294;2023-10-19T06:49:35;15.03;;;10.07;;
11970;SDS011;6045;42.682;23.294;2023-10-19T06:52:02;16.00;;;9.87;;
11970;SDS011;6045;42.682;23.294;2023-10-19T06:54:32;13.40;;;9.63;;
11970;SDS011;6045;42.682;23.294;2023-10-19T06:56:58;12.30;;;9.10;;
11970;SDS011;6045;42.682;23.294;2023-10-19T06:59:28;13.20;;;8.97;;
11970;SDS011;6045;42.682;23.294;2023-10-19T07:01:58;10.73;;;7.93;;
11970;SDS011;6045;42.682;23.294;2023-10-19T07:04:26;10.67;;;7.40;;
11970;SDS011;6045;42.682;23.294;2023-10-19T07:06:53;12.00;;;7.60;;
11970;SDS011;6045;42.682;23.294;2023-10-19T07:09:20;10.83;;;7.27;;
11970;SDS011;6045;42.682;23.294;2023-10-19T07:11:49;11.80;;;7.53;;
11970;SDS011;6045;42.682;23.294;2023-10-19T07:14:20;11.07;;;7.30;;
11970;SDS011;6045;42.682;23.294;2023-10-19T07:16:48;7.47;;;6.20;;
11970;SDS011;6045;42.682;23.294;2023-10-19T07:19:16;8.23;;;6.80;;
11970;SDS011;6045;42.682;23.294;2023-10-19T07:21:44;8.47;;;6.07;;
11970;SDS011;6045;42.682;23.294;2023-10-19T07:24:14;10.40;;;6.63;;
11970;SDS011;6045;42.682;23.294;2023-10-19T07:26:44;11.23;;;7.33;;
11970;SDS011;6045;42.682;23.294;2023-10-19T07:29:20;10.13;;;6.77;;
11970;SDS011;6045;42.682;23.294;2023-10-19T07:31:49;9.43;;;6.40;;
11970;SDS011;6045;42.682;23.294;2023-10-19T07:34:20;8.57;;;6.63;;
11970;SDS011;6045;42.682;23.294;2023-10-19T07:36:50;7.27;;;6.50;;
11970;SDS011;6045;42.682;23.294;2023-10-19T07:39:19;12.13;;;7.43;;
11970;SDS011;6045;42.682;23.294;2023-10-19T07:41:48;8.63;;;7.07;;
11970;SDS011;6045;42.682;23.294;2023-10-19T07:44:15;12.93;;;7.23;;
11970;SDS011;6045;42.682;23.294;2023-10-19T07:46:43;10.57;;;7.00;;
11970;SDS011;6045;42.682;23.294;2023-10-19T07:49:09;9.17;;;6.67;;
11970;SDS011;6045;42.682;23.294;2023-10-19T07:51:40;12.37;;;6.77;;
11970;SDS011;6045;42.682;23.294;2023-10-19T07:54:11;7.77;;;6.17;;
11970;SDS011;6045;42.682;23.294;2023-10-19T07:56:38;9.23;;;6.78;;
11970;SDS011;6045;42.682;23.294;2023-10-19T07:59:05;8.38;;;7.03;;
11970;SDS011;6045;42.682;23.294;2023-10-19T08:01:33;9.30;;;7.43;;
11970;SDS011;6045;42.682;23.294;2023-10-19T08:04:01;9.35;;;7.38;;
11970;SDS011;6045;42.682;23.294;2023-10-19T08:06:28;11.90;;;8.93;;
11970;SDS011;6045;42.682;23.294;2023-10-19T08:08:56;9.43;;;7.32;;
11970;SDS011;6045;42.682;23.294;2023-10-19T08:11:23;11.65;;;8.98;;
11970;SDS011;6045;42.682;23.294;2023-10-19T08:13:50;12.00;;;9.55;;
11970;SDS011;6045;42.682;23.294;2023-10-19T08:16:15;14.35;;;9.77;;
11970;SDS011;6045;42.682;23.294;2023-10-19T08:18:42;14.35;;;9.80;;
11970;SDS011;6045;42.682;23.294;2023-10-19T08:21:11;16.90;;;11.30;;
11970;SDS011;6045;42.682;23.294;2023-10-19T08:23:38;15.85;;;11.35;;
11970;SDS011;6045;42.682;23.294;2023-10-19T08:26:05;15.02;;;10.30;;
11970;SDS011;6045;42.682;23.294;2023-10-19T08:28:32;16.08;;;9.85;;
11970;SDS011;6045;42.682;23.294;2023-10-19T08:30:59;13.88;;;9.80;;
11970;SDS011;6045;42.682;23.294;2023-10-19T08:33:26;11.52;;;9.27;;
11970;SDS011;6045;42.682;23.294;2023-10-19T08:35:55;12.48;;;10.13;;
11970;SDS011;6045;42.682;23.294;2023-10-19T08:38:24;17.65;;;11.13;;
11970;SDS011;6045;42.682;23.294;2023-10-19T08:40:51;15.45;;;10.45;;
11970;SDS011;6045;42.682;23.294;2023-10-19T08:43:18;16.08;;;11.23;;
11970;SDS011;6045;42.682;23.294;2023-10-19T08:45:46;15.20;;;12.38;;
11970;SDS011;6045;42.682;23.294;2023-10-19T08:48:14;14.90;;;11.48;;
11970;SDS011;6045;42.682;23.294;2023-10-19T08:50:41;15.93;;;10.95;;
11970;SDS011;6045;42.682;23.294;2023-10-19T08:53:09;20.00;;;12.13;;
11970;SDS011;6045;42.682;23.294;2023-10-19T08:55:40;18.20;;;11.60;;
11970;SDS011;6045;42.682;23.294;2023-10-19T08:58:08;15.23;;;11.02;;
11970;SDS011;6045;42.682;23.294;2023-10-19T09:00:45;14.20;;;9.35;;
11970;SDS011;6045;42.682;23.294;2023-10-19T09:03:18;17.67;;;10.50;;
11970;SDS011;6045;42.682;23.294;2023-10-19T09:05:47;18.65;;;11.35;;
11970;SDS011;6045;42.682;23.294;2023-10-19T09:08:15;14.48;;;10.27;;
11970;SDS011;6045;42.682;23.294;2023-10-19T09:10:44;11.80;;;7.93;;
11970;SDS011;6045;42.682;23.294;2023-10-19T09:13:11;9.20;;;7.07;;
11970;SDS011;6045;42.682;23.294;2023-10-19T09:15:40;9.07;;;7.05;;
11970;SDS011;6045;42.682;23.294;2023-10-19T09:18:14;8.85;;;6.60;;
11970;SDS011;6045;42.682;23.294;2023-10-19T09:20:43;7.95;;;6.25;;
11970;SDS011;6045;42.682;23.294;2023-10-19T09:23:19;7.22;;;5.78;;
11970;SDS011;6045;42.682;23.294;2023-10-19T09:25:49;7.72;;;5.20;;
11970;SDS011;6045;42.682;23.294;2023-10-19T09:28:17;9.45;;;5.93;;
11970;SDS011;6045;42.682;23.294;2023-10-19T09:30:44;8.18;;;6.22;;
11970;SDS011;6045;42.682;23.294;2023-10-19T09:33:12;6.82;;;5.75;;
11970;SDS011;6045;42.682;23.294;2023-10-19T09:35:42;7.82;;;6.25;;
11970;SDS011;6045;42.682;23.294;2023-10-19T09:38:13;7.70;;;5.68;;
11970;SDS011;6045;42.682;23.294;2023-10-19T09:40:40;7.32;;;6.05;;
11970;SDS011;6045;42.682;23.294;2023-10-19T09:43:14;6.53;;;5.80;;
11970;SDS011;6045;42.682;23.294;2023-10-19T09:45:46;6.93;;;5.90;;
11970;SDS011;6045;42.682;23.294;2023-10-19T09:48:16;10.25;;;6.38;;
11970;SDS011;6045;42.682;23.294;2023-10-19T09:50:46;7.20;;;5.40;;
11970;SDS011;6045;42.682;23.294;2023-10-19T09:53:23;6.40;;;4.97;;
11970;SDS011;6045;42.682;23.294;2023-10-19T09:55:53;6.97;;;5.18;;
11970;SDS011;6045;42.682;23.294;2023-10-19T09:58:24;5.63;;;4.57;;
11970;SDS011;6045;42.682;23.294;2023-10-19T10:00:55;7.00;;;5.32;;
11970;SDS011;6045;42.682;23.294;2023-10-19T10:03:42;7.35;;;5.43;;
11970;SDS011;6045;42.682;23.294;2023-10-19T10:06:13;7.38;;;5.13;;
11970;SDS011;6045;42.682;23.294;2023-10-19T10:08:41;6.90;;;5.35;;
11970;SDS011;6045;42.682;23.294;2023-10-19T10:11:21;7.55;;;4.95;;
11970;SDS011;6045;42.682;23.294;2023-10-19T10:13:53;8.50;;;5.63;;
11970;SDS011;6045;42.682;23.294;2023-10-19T10:16:22;6.53;;;5.05;;
11970;SDS011;6045;42.682;23.294;2023-10-19T10:18:50;6.88;;;5.28;;
11970;SDS011;6045;42.682;23.294;2023-10-19T10:21:20;6.70;;;5.10;;
11970;SDS011;6045;42.682;23.294;2023-10-19T10:23:51;9.30;;;5.43;;
11970;SDS011;6045;42.682;23.294;2023-10-19T10:26:20;8.77;;;6.00;;
11970;SDS011;6045;42.682;23.294;2023-10-19T10:31:40;7.65;;;5.70;;
11970;SDS011;6045;42.682;23.294;2023-10-19T10:34:08;6.32;;;4.65;;
11970;SDS011;6045;42.682;23.294;2023-10-19T10:36:56;5.72;;;4.75;;
11970;SDS011;6045;42.682;23.294;2023-10-19T10:39:25;6.43;;;4.82;;
11970;SDS011;6045;42.682;23.294;2023-10-19T10:41:55;6.93;;;5.15;;
11970;SDS011;6045;42.682;23.294;2023-10-19T10:44:36;6.43;;;4.88;;
11970;SDS011;6045;42.682;23.294;2023-10-19T10:47:05;7.43;;;5.82;;
11970;SDS011;6045;42.682;23.294;2023-10-19T10:49:33;6.70;;;4.90;;
11970;SDS011;6045;42.682;23.294;2023-10-19T10:52:00;6.10;;;5.10;;
11970;SDS011;6045;42.682;23.294;2023-10-19T10:54:27;6.70;;;5.63;;
11970;SDS011;6045;42.682;23.294;2023-10-19T10:56:54;5.28;;;4.75;;
11970;SDS011;6045;42.682;23.294;2023-10-19T10:59:21;5.97;;;4.85;;
11970;SDS011;6045;42.682;23.294;2023-10-19T11:01:49;6.95;;;5.47;;
11970;SDS011;6045;42.682;23.294;2023-10-19T11:04:18;6.32;;;5.32;;
11970;SDS011;6045;42.682;23.294;2023-10-19T11:06:49;5.75;;;4.55;;
11970;SDS011;6045;42.682;23.294;2023-10-19T11:09:16;5.78;;;4.70;;
11970;SDS011;6045;42.682;23.294;2023-10-19T11:11:44;5.80;;;4.60;;
11970;SDS011;6045;42.682;23.294;2023-10-19T11:14:12;5.97;;;5.25;;
11970;SDS011;6045;42.682;23.294;2023-10-19T11:16:38;5.88;;;4.50;;
11970;SDS011;6045;42.682;23.294;2023-10-19T11:19:07;6.00;;;4.88;;
11970;SDS011;6045;42.682;23.294;2023-10-19T11:21:35;8.45;;;5.60;;
11970;SDS011;6045;42.682;23.294;2023-10-19T11:24:02;6.20;;;4.82;;
11970;SDS011;6045;42.682;23.294;2023-10-19T11:26:30;6.30;;;4.80;;
11970;SDS011;6045;42.682;23.294;2023-10-19T11:28:57;5.32;;;4.80;;
11970;SDS011;6045;42.682;23.294;2023-10-19T11:31:24;6.38;;;4.78;;
11970;SDS011;6045;42.682;23.294;2023-10-19T11:34:02;5.28;;;4.50;;
11970;SDS011;6045;42.682;23.294;2023-10-19T11:36:31;7.57;;;4.85;;
11970;SDS011;6045;42.682;23.294;2023-10-19T11:38:59;6.05;;;4.38;;
11970;SDS011;6045;42.682;23.294;2023-10-19T11:41:26;4.97;;;4.07;;
11970;SDS011;6045;42.682;23.294;2023-10-19T11:43:53;6.07;;;4.82;;
11970;SDS011;6045;42.682;23.294;2023-10-19T11:46:20;7.82;;;5.15;;
11970;SDS011;6045;42.682;23.294;2023-10-19T11:48:48;7.05;;;4.75;;
11970;SDS011;6045;42.682;23.294;2023-10-19T11:51:15;5.20;;;4.43;;
11970;SDS011;6045;42.682;23.294;2023-10-19T11:53:43;5.25;;;4.80;;
11970;SDS011;6045;42.682;23.294;2023-10-19T11:56:11;4.60;;;4.18;;
11970;SDS011;6045;42.682;23.294;2023-10-19T11:58:41;5.32;;;4.30;;
11970;SDS011;6045;42.682;23.294;2023-10-19T12:01:09;5.63;;;5.03;;
11970;SDS011;6045;42.682;23.294;2023-10-19T12:03:38;6.35;;;4.82;;
11970;SDS011;6045;42.682;23.294;2023-10-19T12:06:05;6.22;;;4.57;;
11970;SDS011;6045;42.682;23.294;2023-10-19T12:08:32;4.82;;;4.13;;
11970;SDS011;6045;42.682;23.294;2023-10-19T12:11:02;5.82;;;4.40;;
11970;SDS011;6045;42.682;23.294;2023-10-19T12:13:29;6.05;;;4.72;;
11970;SDS011;6045;42.682;23.294;2023-10-19T12:15:57;5.25;;;4.35;;
11970;SDS011;6045;42.682;23.294;2023-10-19T12:18:24;5.15;;;4.32;;
11970;SDS011;6045;42.682;23.294;2023-10-19T12:20:53;7.35;;;4.30;;
11970;SDS011;6045;42.682;23.294;2023-10-19T12:23:22;6.68;;;4.00;;
11970;SDS011;6045;42.682;23.294;2023-10-19T12:25:49;5.57;;;4.10;;
11970;SDS011;6045;42.682;23.294;2023-10-19T12:28:17;4.93;;;3.60;;
11970;SDS011;6045;42.682;23.294;2023-10-19T12:30:44;4.95;;;4.07;;
11970;SDS011;6045;42.682;23.294;2023-10-19T12:33:11;5.70;;;3.97;;
11970;SDS011;6045;42.682;23.294;2023-10-19T12:35:38;5.47;;;3.58;;
11970;SDS011;6045;42.682;23.294;2023-10-19T12:38:11;4.32;;;3.60;;
11970;SDS011;6045;42.682;23.294;2023-10-19T12:40:44;4.45;;;3.85;;
11970;SDS011;6045;42.682;23.294;2023-10-19T12:43:12;3.55;;;3.25;;
11970;SDS011;6045;42.682;23.294;2023-10-19T12:45:41;3.60;;;3.30;;
11970;SDS011;6045;42.682;23.294;2023-10-19T12:48:09;8.07;;;3.97;;
11970;SDS011;6045;42.682;23.294;2023-10-19T12:50:36;3.90;;;3.58;;
11970;SDS011;6045;42.682;23.294;2023-10-19T12:53:07;4.30;;;3.65;;
11970;SDS011;6045;42.682;23.294;2023-10-19T12:55:35;3.42;;;3.13;;
11970;SDS011;6045;42.682;23.294;2023-10-19T12:58:03;4.03;;;3.65;;
11970;SDS011;6045;42.682;23.294;2023-10-19T13:00:34;4.15;;;3.75;;
11970;SDS011;6045;42.682;23.294;2023-10-19T13:03:10;4.55;;;3.95;;
11970;SDS011;6045;42.682;23.294;2023-10-19T13:05:41;5.25;;;3.88;;
11970;SDS011;6045;42.682;23.294;2023-10-19T13:08:09;4.72;;;3.95;;
11970;SDS011;6045;42.682;23.294;2023-10-19T13:10:38;4.32;;;3.83;;
11970;SDS011;6045;42.682;23.294;2023-10-19T13:13:07;5.13;;;3.90;;
11970;SDS011;6045;42.682;23.294;2023-10-19T13:15:37;4.57;;;4.13;;
11970;SDS011;6045;42.682;23.294;2023-10-19T13:18:05;4.72;;;3.97;;
11970;SDS011;6045;42.682;23.294;2023-10-19T13:20:36;6.20;;;4.28;;
11970;SDS011;6045;42.682;23.294;2023-10-19T13:23:04;4.18;;;3.20;;
11970;SDS011;6045;42.682;23.294;2023-10-19T13:25:36;4.53;;;3.65;;
11970;SDS011;6045;42.682;23.294;2023-10-19T13:28:12;5.13;;;4.05;;
11970;SDS011;6045;42.682;23.294;2023-10-19T13:30:40;5.15;;;4.20;;
11970;SDS011;6045;42.682;23.294;2023-10-19T13:33:08;3.63;;;3.33;;
11970;SDS011;6045;42.682;23.294;2023-10-19T13:35:38;5.03;;;3.88;;
11970;SDS011;6045;42.682;23.294;2023-10-19T13:38:06;4.18;;;3.20;;
11970;SDS011;6045;42.682;23.294;2023-10-19T13:40:34;4.22;;;3.83;;
11970;SDS011;6045;42.682;23.294;2023-10-19T13:43:01;4.10;;;3.70;;
11970;SDS011;6045;42.682;23.294;2023-10-19T13:45:30;4.28;;;3.38;;
11970;SDS011;6045;42.682;23.294;2023-10-19T13:47:58;3.60;;;3.17;;
11970;SDS011;6045;42.682;23.294;2023-10-19T13:50:25;4.93;;;3.80;;
11970;SDS011;6045;42.682;23.294;2023-10-19T13:52:54;4.30;;;3.85;;
11970;SDS011;6045;42.682;23.294;2023-10-19T13:55:22;3.65;;;3.22;;
11970;SDS011;6045;42.682;23.294;2023-10-19T13:57:49;4.72;;;3.70;;
11970;SDS011;6045;42.682;23.294;2023-10-19T14:00:17;6.07;;;3.70;;
11970;SDS011;6045;42.682;23.294;2023-10-19T14:02:50;4.35;;;3.80;;
11970;SDS011;6045;42.682;23.294;2023-10-19T14:05:17;4.93;;;4.07;;
11970;SDS011;6045;42.682;23.294;2023-10-19T14:07:45;4.03;;;3.63;;
11970;SDS011;6045;42.682;23.294;2023-10-19T14:10:14;6.03;;;3.92;;
11970;SDS011;6045;42.682;23.294;2023-10-19T14:12:41;5.35;;;3.92;;
11970;SDS011;6045;42.682;23.294;2023-10-19T14:15:12;5.28;;;3.75;;
11970;SDS011;6045;42.682;23.294;2023-10-19T14:17:40;4.40;;;3.55;;
11970;SDS011;6045;42.682;23.294;2023-10-19T14:20:07;4.63;;;3.75;;
11970;SDS011;6045;42.682;23.294;2023-10-19T14:22:37;3.85;;;3.25;;
11970;SDS011;6045;42.682;23.294;2023-10-19T14:25:06;4.38;;;3.63;;
11970;SDS011;6045;42.682;23.294;2023-10-19T14:27:38;4.22;;;3.75;;
11970;SDS011;6045;42.682;23.294;2023-10-19T14:30:07;4.05;;;3.28;;
11970;SDS011;6045;42.682;23.294;2023-10-19T14:32:36;4.70;;;3.60;;
11970;SDS011;6045;42.682;23.294;2023-10-19T14:35:04;5.47;;;3.53;;
11970;SDS011;6045;42.682;23.294;2023-10-19T14:37:35;5.25;;;3.28;;
11970;SDS011;6045;42.682;23.294;2023-10-19T14:40:04;7.13;;;3.75;;
11970;SDS011;6045;42.682;23.294;2023-10-19T14:42:34;4.25;;;2.90;;
11970;SDS011;6045;42.682;23.294;2023-10-19T14:45:04;4.82;;;3.15;;
11970;SDS011;6045;42.682;23.294;2023-10-19T14:47:35;4.38;;;3.70;;
11970;SDS011;6045;42.682;23.294;2023-10-19T14:50:06;4.30;;;3.28;;
11970;SDS011;6045;42.682;23.294;2023-10-19T14:52:36;7.53;;;4.00;;
11970;SDS011;6045;42.682;23.294;2023-10-19T14:55:04;4.22;;;3.67;;